sensor_id;sensor_type;location;lat;lon;timestamp;temperature;humidity
26745;DHT22;14342;50.960;13.880;2024-01-30T00:00:16;4.30;99.90
26745;DHT22;14342;50.960;13.880;2024-01-30T00:01:16;4.30;99.90
26745;DHT22;14342;50.960;13.880;2024-01-30T00:02:18;4.30;99.90
26745;DHT22;14342;50.960;13.880;2024-01-30T00:03:18;4.40;99.90
26745;DHT22;14342;50.960;13.880;2024-01-30T00:04:20;4.30;99.90
26745;DHT22;14342;50.960;13.880;2024-01-30T00:05:20;4.30;99.90
26745;DHT22;14342;50.960;13.880;2024-01-30T00:06:22;4.30;99.90
26745;DHT22;14342;50.960;13.880;2024-01-30T00:07:24;4.40;99.90
26745;DHT22;14342;50.960;13.880;2024-01-30T00:08:25;4.30;99.90
26745;DHT22;14342;50.960;13.880;2024-01-30T00:09:27;4.30;99.90
26745;DHT22;14342;50.960;13.880;2024-01-30T00:10:29;4.20;99.90
26745;DHT22;14342;50.960;13.880;2024-01-30T00:11:30;4.10;99.90
26745;DHT22;14342;50.960;13.880;2024-01-30T00:12:30;4.40;99.90
26745;DHT22;14342;50.960;13.880;2024-01-30T00:13:32;4.20;99.90
26745;DHT22;14342;50.960;13.880;2024-01-30T00:14:32;4.20;99.90
26745;DHT22;14342;50.960;13.880;2024-01-30T00:15:34;4.10;99.90
26745;DHT22;14342;50.960;13.880;2024-01-30T00:16:35;4.20;99.90
26745;DHT22;14342;50.960;13.880;2024-01-30T00:17:36;4.20;99.90
26745;DHT22;14342;50.960;13.880;2024-01-30T00:18:37;3.90;99.90
26745;DHT22;14342;50.960;13.880;2024-01-30T00:19:39;3.90;99.90
26745;DHT22;14342;50.960;13.880;2024-01-30T00:20:40;4.10;99.90
26745;DHT22;14342;50.960;13.880;2024-01-30T00:21:43;3.90;99.90
26745;DHT22;14342;50.960;13.880;2024-01-30T00:22:43;3.90;99.90
26745;DHT22;14342;50.960;13.880;2024-01-30T00:23:45;3.80;99.90
26745;DHT22;14342;50.960;13.880;2024-01-30T00:24:47;3.80;99.90
26745;DHT22;14342;50.960;13.880;2024-01-30T00:25:47;3.80;99.90
26745;DHT22;14342;50.960;13.880;2024-01-30T00:26:49;4.00;99.90
26745;DHT22;14342;50.960;13.880;2024-01-30T00:27:49;3.70;99.90
26745;DHT22;14342;50.960;13.880;2024-01-30T00:28:51;3.70;99.90
26745;DHT22;14342;50.960;13.880;2024-01-30T00:29:51;3.70;99.90
26745;DHT22;14342;50.960;13.880;2024-01-30T00:30:53;3.70;99.90
26745;DHT22;14342;50.960;13.880;2024-01-30T00:31:53;3.70;99.90
26745;DHT22;14342;50.960;13.880;2024-01-30T00:32:55;3.80;99.90
26745;DHT22;14342;50.960;13.880;2024-01-30T00:33:55;3.80;99.90
26745;DHT22;14342;50.960;13.880;2024-01-30T00:34:57;3.80;99.90
26745;DHT22;14342;50.960;13.880;2024-01-30T00:35:58;3.80;99.90
26745;DHT22;14342;50.960;13.880;2024-01-30T00:36:58;3.80;99.90
26745;DHT22;14342;50.960;13.880;2024-01-30T00:38:00;3.80;99.90
26745;DHT22;14342;50.960;13.880;2024-01-30T00:39:00;4.10;99.90
26745;DHT22;14342;50.960;13.880;2024-01-30T00:40:04;3.80;99.90
26745;DHT22;14342;50.960;13.880;2024-01-30T00:41:06;3.90;99.90
26745;DHT22;14342;50.960;13.880;2024-01-30T00:42:08;3.80;99.90
26745;DHT22;14342;50.960;13.880;2024-01-30T00:43:08;3.90;99.90
26745;DHT22;14342;50.960;13.880;2024-01-30T00:44:10;3.80;99.90
26745;DHT22;14342;50.960;13.880;2024-01-30T00:45:14;3.90;99.90
26745;DHT22;14342;50.960;13.880;2024-01-30T00:46:15;3.90;99.90
26745;DHT22;14342;50.960;13.880;2024-01-30T00:47:16;3.90;99.90
26745;DHT22;14342;50.960;13.880;2024-01-30T00:48:17;4.00;99.90
26745;DHT22;14342;50.960;13.880;2024-01-30T00:49:18;4.00;99.90
26745;DHT22;14342;50.960;13.880;2024-01-30T00:50:20;4.10;99.90
26745;DHT22;14342;50.960;13.880;2024-01-30T00:51:20;4.00;99.90
26745;DHT22;14342;50.960;13.880;2024-01-30T00:52:21;3.90;99.90
26745;DHT22;14342;50.960;13.880;2024-01-30T00:53:22;4.10;99.90
26745;DHT22;14342;50.960;13.880;2024-01-30T00:54:23;3.90;99.90
26745;DHT22;14342;50.960;13.880;2024-01-30T00:55:25;3.90;99.90
26745;DHT22;14342;50.960;13.880;2024-01-30T00:56:26;3.90;99.90
26745;DHT22;14342;50.960;13.880;2024-01-30T00:57:27;3.80;99.90
26745;DHT22;14342;50.960;13.880;2024-01-30T00:58:29;3.80;99.90
26745;DHT22;14342;50.960;13.880;2024-01-30T00:59:29;3.80;99.90
26745;DHT22;14342;50.960;13.880;2024-01-30T01:00:30;3.70;99.90
26745;DHT22;14342;50.960;13.880;2024-01-30T01:01:32;3.70;99.90
26745;DHT22;14342;50.960;13.880;2024-01-30T01:02:32;3.70;99.90
26745;DHT22;14342;50.960;13.880;2024-01-30T01:03:34;3.70;99.90
26745;DHT22;14342;50.960;13.880;2024-01-30T01:04:35;3.80;99.90
26745;DHT22;14342;50.960;13.880;2024-01-30T01:05:36;3.70;99.90
26745;DHT22;14342;50.960;13.880;2024-01-30T01:06:37;3.70;99.90
26745;DHT22;14342;50.960;13.880;2024-01-30T01:07:37;3.70;99.90
26745;DHT22;14342;50.960;13.880;2024-01-30T01:08:40;3.70;99.90
26745;DHT22;14342;50.960;13.880;2024-01-30T01:09:41;3.80;99.90
26745;DHT22;14342;50.960;13.880;2024-01-30T01:10:43;3.80;99.90
26745;DHT22;14342;50.960;13.880;2024-01-30T01:11:44;3.80;99.90
26745;DHT22;14342;50.960;13.880;2024-01-30T01:12:46;3.90;99.90
26745;DHT22;14342;50.960;13.880;2024-01-30T01:13:47;3.80;99.90
26745;DHT22;14342;50.960;13.880;2024-01-30T01:14:49;3.80;99.90
26745;DHT22;14342;50.960;13.880;2024-01-30T01:15:49;3.70;99.90
26745;DHT22;14342;50.960;13.880;2024-01-30T01:16:51;3.80;99.90
26745;DHT22;14342;50.960;13.880;2024-01-30T01:17:51;3.70;99.90
26745;DHT22;14342;50.960;13.880;2024-01-30T01:18:53;3.70;99.90
26745;DHT22;14342;50.960;13.880;2024-01-30T01:19:54;3.80;99.90
26745;DHT22;14342;50.960;13.880;2024-01-30T01:20:55;3.60;99.90
26745;DHT22;14342;50.960;13.880;2024-01-30T01:21:56;3.70;99.90
26745;DHT22;14342;50.960;13.880;2024-01-30T01:22:57;3.60;99.90
26745;DHT22;14342;50.960;13.880;2024-01-30T01:23:58;3.60;99.90
26745;DHT22;14342;50.960;13.880;2024-01-30T01:24:59;3.60;99.90
26745;DHT22;14342;50.960;13.880;2024-01-30T01:26:01;3.60;99.90
26745;DHT22;14342;50.960;13.880;2024-01-30T01:27:03;3.60;99.90
26745;DHT22;14342;50.960;13.880;2024-01-30T01:28:04;3.60;99.90
26745;DHT22;14342;50.960;13.880;2024-01-30T01:29:05;3.60;99.90
26745;DHT22;14342;50.960;13.880;2024-01-30T01:30:10;3.60;99.90
26745;DHT22;14342;50.960;13.880;2024-01-30T01:31:12;3.50;99.90
26745;DHT22;14342;50.960;13.880;2024-01-30T01:32:12;3.50;99.90
26745;DHT22;14342;50.960;13.880;2024-01-30T01:33:14;3.50;99.90
26745;DHT22;14342;50.960;13.880;2024-01-30T01:34:14;3.50;99.90
26745;DHT22;14342;50.960;13.880;2024-01-30T01:35:16;3.50;99.90
26745;DHT22;14342;50.960;13.880;2024-01-30T01:36:16;3.50;99.90
26745;DHT22;14342;50.960;13.880;2024-01-30T01:37:18;3.50;99.90
26745;DHT22;14342;50.960;13.880;2024-01-30T01:38:18;3.50;99.90
26745;DHT22;14342;50.960;13.880;2024-01-30T01:39:19;3.60;99.90
26745;DHT22;14342;50.960;13.880;2024-01-30T01:40:22;3.50;99.90
26745;DHT22;14342;50.960;13.880;2024-01-30T01:41:24;3.60;99.90
26745;DHT22;14342;50.960;13.880;2024-01-30T01:42:26;3.60;99.90
26745;DHT22;14342;50.960;13.880;2024-01-30T01:43:26;3.60;99.90
26745;DHT22;14342;50.960;13.880;2024-01-30T01:44:28;3.60;99.90
26745;DHT22;14342;50.960;13.880;2024-01-30T01:45:28;3.60;99.90
26745;DHT22;14342;50.960;13.880;2024-01-30T01:46:30;3.60;99.90
26745;DHT22;14342;50.960;13.880;2024-01-30T01:47:32;3.50;99.90
26745;DHT22;14342;50.960;13.880;2024-01-30T01:48:33;3.50;99.90
26745;DHT22;14342;50.960;13.880;2024-01-30T01:49:35;3.50;99.90
26745;DHT22;14342;50.960;13.880;2024-01-30T01:50:35;3.40;99.90
26745;DHT22;14342;50.960;13.880;2024-01-30T01:51:37;3.40;99.90
26745;DHT22;14342;50.960;13.880;2024-01-30T01:52:39;3.30;99.90
26745;DHT22;14342;50.960;13.880;2024-01-30T01:53:41;3.30;99.90
26745;DHT22;14342;50.960;13.880;2024-01-30T01:54:42;3.30;99.90
26745;DHT22;14342;50.960;13.880;2024-01-30T01:55:45;3.30;99.90
26745;DHT22;14342;50.960;13.880;2024-01-30T01:56:47;3.30;99.90
26745;DHT22;14342;50.960;13.880;2024-01-30T01:57:49;3.30;99.90
26745;DHT22;14342;50.960;13.880;2024-01-30T01:58:49;3.40;99.90
26745;DHT22;14342;50.960;13.880;2024-01-30T01:59:52;3.30;99.90
26745;DHT22;14342;50.960;13.880;2024-01-30T02:00:53;3.30;99.90
26745;DHT22;14342;50.960;13.880;2024-01-30T02:01:54;3.50;99.90
26745;DHT22;14342;50.960;13.880;2024-01-30T02:02:56;3.40;99.90
26745;DHT22;14342;50.960;13.880;2024-01-30T02:03:57;3.40;99.90
26745;DHT22;14342;50.960;13.880;2024-01-30T02:04:58;3.50;99.90
26745;DHT22;14342;50.960;13.880;2024-01-30T02:06:00;3.40;99.90
26745;DHT22;14342;50.960;13.880;2024-01-30T02:07:02;3.40;99.90
26745;DHT22;14342;50.960;13.880;2024-01-30T02:08:03;3.30;99.90
26745;DHT22;14342;50.960;13.880;2024-01-30T02:09:05;3.40;99.90
26745;DHT22;14342;50.960;13.880;2024-01-30T02:10:06;3.40;99.90
26745;DHT22;14342;50.960;13.880;2024-01-30T02:11:08;3.40;99.90
26745;DHT22;14342;50.960;13.880;2024-01-30T02:12:11;3.40;99.90
26745;DHT22;14342;50.960;13.880;2024-01-30T02:13:13;3.50;99.90
26745;DHT22;14342;50.960;13.880;2024-01-30T02:14:13;3.60;99.90
26745;DHT22;14342;50.960;13.880;2024-01-30T02:15:15;3.40;99.90
26745;DHT22;14342;50.960;13.880;2024-01-30T02:16:15;3.50;99.90
26745;DHT22;14342;50.960;13.880;2024-01-30T02:17:17;3.40;99.90
26745;DHT22;14342;50.960;13.880;2024-01-30T02:18:19;3.40;99.90
26745;DHT22;14342;50.960;13.880;2024-01-30T02:19:20;3.40;99.90
26745;DHT22;14342;50.960;13.880;2024-01-30T02:20:21;3.40;99.90
26745;DHT22;14342;50.960;13.880;2024-01-30T02:21:23;3.40;99.90
26745;DHT22;14342;50.960;13.880;2024-01-30T02:22:25;3.30;99.90
26745;DHT22;14342;50.960;13.880;2024-01-30T02:23:26;3.30;99.90
26745;DHT22;14342;50.960;13.880;2024-01-30T02:24:28;3.30;99.90
26745;DHT22;14342;50.960;13.880;2024-01-30T02:25:32;3.40;99.90
26745;DHT22;14342;50.960;13.880;2024-01-30T02:26:34;3.30;99.90
26745;DHT22;14342;50.960;13.880;2024-01-30T02:27:34;3.30;99.90
26745;DHT22;14342;50.960;13.880;2024-01-30T02:28:36;3.20;99.90
26745;DHT22;14342;50.960;13.880;2024-01-30T02:29:36;3.20;99.90
26745;DHT22;14342;50.960;13.880;2024-01-30T02:30:38;3.30;99.90
26745;DHT22;14342;50.960;13.880;2024-01-30T02:31:39;3.30;99.90
26745;DHT22;14342;50.960;13.880;2024-01-30T02:32:40;3.30;99.90
26745;DHT22;14342;50.960;13.880;2024-01-30T02:33:41;3.30;99.90
26745;DHT22;14342;50.960;13.880;2024-01-30T02:34:42;3.30;99.90
26745;DHT22;14342;50.960;13.880;2024-01-30T02:35:43;3.30;99.90
26745;DHT22;14342;50.960;13.880;2024-01-30T02:36:46;3.20;99.90
26745;DHT22;14342;50.960;13.880;2024-01-30T02:37:46;3.20;99.90
26745;DHT22;14342;50.960;13.880;2024-01-30T02:38:48;3.20;99.90
26745;DHT22;14342;50.960;13.880;2024-01-30T02:39:48;3.10;99.90
26745;DHT22;14342;50.960;13.880;2024-01-30T02:40:50;3.10;99.90
26745;DHT22;14342;50.960;13.880;2024-01-30T02:41:50;3.20;99.90
26745;DHT22;14342;50.960;13.880;2024-01-30T02:42:52;3.20;99.90
26745;DHT22;14342;50.960;13.880;2024-01-30T02:43:52;3.20;99.90
26745;DHT22;14342;50.960;13.880;2024-01-30T02:44:54;3.20;99.90
26745;DHT22;14342;50.960;13.880;2024-01-30T02:45:54;3.00;99.90
26745;DHT22;14342;50.960;13.880;2024-01-30T02:46:56;3.00;99.90
26745;DHT22;14342;50.960;13.880;2024-01-30T02:47:57;3.00;99.90
26745;DHT22;14342;50.960;13.880;2024-01-30T02:48:58;3.00;99.90
26745;DHT22;14342;50.960;13.880;2024-01-30T02:49:59;3.00;99.90
26745;DHT22;14342;50.960;13.880;2024-01-30T02:51:00;3.00;99.90
26745;DHT22;14342;50.960;13.880;2024-01-30T02:52:02;3.20;99.90
26745;DHT22;14342;50.960;13.880;2024-01-30T02:53:04;3.00;99.90
26745;DHT22;14342;50.960;13.880;2024-01-30T02:54:04;3.10;99.90
26745;DHT22;14342;50.960;13.880;2024-01-30T02:55:06;3.10;99.90
26745;DHT22;14342;50.960;13.880;2024-01-30T02:56:07;3.20;99.90
26745;DHT22;14342;50.960;13.880;2024-01-30T02:57:10;3.20;99.90
26745;DHT22;14342;50.960;13.880;2024-01-30T02:58:10;3.20;99.90
26745;DHT22;14342;50.960;13.880;2024-01-30T02:59:12;3.20;99.90
26745;DHT22;14342;50.960;13.880;2024-01-30T03:00:13;3.40;99.90
26745;DHT22;14342;50.960;13.880;2024-01-30T03:01:14;3.20;99.90
26745;DHT22;14342;50.960;13.880;2024-01-30T03:02:15;3.30;99.90
26745;DHT22;14342;50.960;13.880;2024-01-30T03:03:16;3.30;99.90
26745;DHT22;14342;50.960;13.880;2024-01-30T03:04:17;3.30;99.90
26745;DHT22;14342;50.960;13.880;2024-01-30T03:05:18;3.60;99.90
26745;DHT22;14342;50.960;13.880;2024-01-30T03:06:19;3.40;99.90
26745;DHT22;14342;50.960;13.880;2024-01-30T03:07:23;3.50;99.90
26745;DHT22;14342;50.960;13.880;2024-01-30T03:08:24;3.50;99.90
26745;DHT22;14342;50.960;13.880;2024-01-30T03:09:25;3.50;99.90
26745;DHT22;14342;50.960;13.880;2024-01-30T03:10:26;3.40;99.90
26745;DHT22;14342;50.960;13.880;2024-01-30T03:11:27;3.30;99.90
26745;DHT22;14342;50.960;13.880;2024-01-30T03:12:28;3.30;99.90
26745;DHT22;14342;50.960;13.880;2024-01-30T03:13:28;3.30;99.90
26745;DHT22;14342;50.960;13.880;2024-01-30T03:14:30;3.30;99.90
26745;DHT22;14342;50.960;13.880;2024-01-30T03:15:31;3.20;99.90
26745;DHT22;14342;50.960;13.880;2024-01-30T03:16:32;3.20;99.90
26745;DHT22;14342;50.960;13.880;2024-01-30T03:17:33;3.20;99.90
26745;DHT22;14342;50.960;13.880;2024-01-30T03:18:33;3.20;99.90
26745;DHT22;14342;50.960;13.880;2024-01-30T03:19:35;3.50;99.90
26745;DHT22;14342;50.960;13.880;2024-01-30T03:20:35;3.20;99.90
26745;DHT22;14342;50.960;13.880;2024-01-30T03:21:37;3.10;99.90
26745;DHT22;14342;50.960;13.880;2024-01-30T03:22:39;3.30;99.90
26745;DHT22;14342;50.960;13.880;2024-01-30T03:23:40;3.00;99.90
26745;DHT22;14342;50.960;13.880;2024-01-30T03:24:41;3.10;99.90
26745;DHT22;14342;50.960;13.880;2024-01-30T03:25:42;3.10;99.90
26745;DHT22;14342;50.960;13.880;2024-01-30T03:26:43;3.20;99.90
26745;DHT22;14342;50.960;13.880;2024-01-30T03:27:44;3.30;99.90
26745;DHT22;14342;50.960;13.880;2024-01-30T03:28:45;3.30;99.90
26745;DHT22;14342;50.960;13.880;2024-01-30T03:29:46;3.30;99.90
26745;DHT22;14342;50.960;13.880;2024-01-30T03:30:47;3.20;99.90
26745;DHT22;14342;50.960;13.880;2024-01-30T03:31:48;3.20;99.90
26745;DHT22;14342;50.960;13.880;2024-01-30T03:32:49;3.20;99.90
26745;DHT22;14342;50.960;13.880;2024-01-30T03:33:50;3.10;99.90
26745;DHT22;14342;50.960;13.880;2024-01-30T03:34:52;3.10;99.90
26745;DHT22;14342;50.960;13.880;2024-01-30T03:35:52;3.10;99.90
26745;DHT22;14342;50.960;13.880;2024-01-30T03:36:54;3.10;99.90
26745;DHT22;14342;50.960;13.880;2024-01-30T03:37:56;3.10;99.90
26745;DHT22;14342;50.960;13.880;2024-01-30T03:38:57;3.10;99.90
26745;DHT22;14342;50.960;13.880;2024-01-30T03:39:58;3.40;99.90
26745;DHT22;14342;50.960;13.880;2024-01-30T03:40:59;3.20;99.90
26745;DHT22;14342;50.960;13.880;2024-01-30T03:42:00;3.30;99.90
26745;DHT22;14342;50.960;13.880;2024-01-30T03:43:01;3.30;99.90
26745;DHT22;14342;50.960;13.880;2024-01-30T03:44:03;3.30;99.90
26745;DHT22;14342;50.960;13.880;2024-01-30T03:45:04;3.30;99.90
26745;DHT22;14342;50.960;13.880;2024-01-30T03:46:05;3.30;99.90
26745;DHT22;14342;50.960;13.880;2024-01-30T03:47:07;3.30;99.90
26745;DHT22;14342;50.960;13.880;2024-01-30T03:48:07;3.20;99.90
26745;DHT22;14342;50.960;13.880;2024-01-30T03:49:09;3.20;99.90
26745;DHT22;14342;50.960;13.880;2024-01-30T03:50:10;3.20;99.90
26745;DHT22;14342;50.960;13.880;2024-01-30T03:51:10;3.30;99.90
26745;DHT22;14342;50.960;13.880;2024-01-30T03:52:14;3.50;99.90
26745;DHT22;14342;50.960;13.880;2024-01-30T03:53:17;3.20;99.90
26745;DHT22;14342;50.960;13.880;2024-01-30T03:54:18;3.30;99.90
26745;DHT22;14342;50.960;13.880;2024-01-30T03:55:19;3.30;99.90
26745;DHT22;14342;50.960;13.880;2024-01-30T03:56:20;3.20;99.90
26745;DHT22;14342;50.960;13.880;2024-01-30T03:57:21;3.20;99.90
26745;DHT22;14342;50.960;13.880;2024-01-30T03:58:22;3.20;99.90
26745;DHT22;14342;50.960;13.880;2024-01-30T03:59:23;3.20;99.90
26745;DHT22;14342;50.960;13.880;2024-01-30T04:00:25;3.20;99.90
26745;DHT22;14342;50.960;13.880;2024-01-30T04:01:25;3.20;99.90
26745;DHT22;14342;50.960;13.880;2024-01-30T04:02:27;3.20;99.90
26745;DHT22;14342;50.960;13.880;2024-01-30T04:03:27;3.30;99.90
26745;DHT22;14342;50.960;13.880;2024-01-30T04:04:28;3.30;99.90
26745;DHT22;14342;50.960;13.880;2024-01-30T04:05:30;3.30;99.90
26745;DHT22;14342;50.960;13.880;2024-01-30T04:06:30;3.30;99.90
26745;DHT22;14342;50.960;13.880;2024-01-30T04:07:32;3.30;99.90
26745;DHT22;14342;50.960;13.880;2024-01-30T04:08:34;3.50;99.90
26745;DHT22;14342;50.960;13.880;2024-01-30T04:09:35;3.20;99.90
26745;DHT22;14342;50.960;13.880;2024-01-30T04:10:36;3.20;99.90
26745;DHT22;14342;50.960;13.880;2024-01-30T04:11:37;3.20;99.90
26745;DHT22;14342;50.960;13.880;2024-01-30T04:12:38;3.20;99.90
26745;DHT22;14342;50.960;13.880;2024-01-30T04:13:40;3.20;99.90
26745;DHT22;14342;50.960;13.880;2024-01-30T04:14:40;3.10;99.90
26745;DHT22;14342;50.960;13.880;2024-01-30T04:15:41;3.10;99.90
26745;DHT22;14342;50.960;13.880;2024-01-30T04:16:42;3.10;99.90
26745;DHT22;14342;50.960;13.880;2024-01-30T04:17:43;3.20;99.90
26745;DHT22;14342;50.960;13.880;2024-01-30T04:18:44;3.20;99.90
26745;DHT22;14342;50.960;13.880;2024-01-30T04:19:45;3.20;99.90
26745;DHT22;14342;50.960;13.880;2024-01-30T04:20:46;3.30;99.90
26745;DHT22;14342;50.960;13.880;2024-01-30T04:21:47;3.30;99.90
26745;DHT22;14342;50.960;13.880;2024-01-30T04:22:48;3.40;99.90
26745;DHT22;14342;50.960;13.880;2024-01-30T04:23:51;3.30;99.90
26745;DHT22;14342;50.960;13.880;2024-01-30T04:24:52;3.30;99.90
26745;DHT22;14342;50.960;13.880;2024-01-30T04:25:53;3.50;99.90
26745;DHT22;14342;50.960;13.880;2024-01-30T04:26:54;3.30;99.90
26745;DHT22;14342;50.960;13.880;2024-01-30T04:27:55;3.30;99.90
26745;DHT22;14342;50.960;13.880;2024-01-30T04:28:56;3.30;99.90
26745;DHT22;14342;50.960;13.880;2024-01-30T04:29:57;3.20;99.90
26745;DHT22;14342;50.960;13.880;2024-01-30T04:30:58;3.20;99.90
26745;DHT22;14342;50.960;13.880;2024-01-30T04:32:00;3.50;99.90
26745;DHT22;14342;50.960;13.880;2024-01-30T04:33:00;3.20;99.90
26745;DHT22;14342;50.960;13.880;2024-01-30T04:34:02;3.30;99.90
26745;DHT22;14342;50.960;13.880;2024-01-30T04:35:02;3.30;99.90
26745;DHT22;14342;50.960;13.880;2024-01-30T04:36:04;3.20;99.90
26745;DHT22;14342;50.960;13.880;2024-01-30T04:37:10;3.20;99.90
26745;DHT22;14342;50.960;13.880;2024-01-30T04:38:11;3.20;99.90
26745;DHT22;14342;50.960;13.880;2024-01-30T04:39:13;3.20;99.90
26745;DHT22;14342;50.960;13.880;2024-01-30T04:40:15;3.10;99.90
26745;DHT22;14342;50.960;13.880;2024-01-30T04:41:16;3.00;99.90
26745;DHT22;14342;50.960;13.880;2024-01-30T04:42:17;3.00;99.90
26745;DHT22;14342;50.960;13.880;2024-01-30T04:43:18;2.90;99.90
26745;DHT22;14342;50.960;13.880;2024-01-30T04:44:20;2.90;99.90
26745;DHT22;14342;50.960;13.880;2024-01-30T04:45:20;2.90;99.90
26745;DHT22;14342;50.960;13.880;2024-01-30T04:46:21;2.90;99.90
26745;DHT22;14342;50.960;13.880;2024-01-30T04:47:22;3.10;99.90
26745;DHT22;14342;50.960;13.880;2024-01-30T04:48:23;3.00;99.90
26745;DHT22;14342;50.960;13.880;2024-01-30T04:49:24;3.00;99.90
26745;DHT22;14342;50.960;13.880;2024-01-30T04:50:25;2.90;99.90
26745;DHT22;14342;50.960;13.880;2024-01-30T04:51:27;3.00;99.90
26745;DHT22;14342;50.960;13.880;2024-01-30T04:52:28;2.90;99.90
26745;DHT22;14342;50.960;13.880;2024-01-30T04:53:29;2.90;99.90
26745;DHT22;14342;50.960;13.880;2024-01-30T04:54:31;2.90;99.90
26745;DHT22;14342;50.960;13.880;2024-01-30T04:55:34;2.90;99.90
26745;DHT22;14342;50.960;13.880;2024-01-30T04:56:36;2.80;99.90
26745;DHT22;14342;50.960;13.880;2024-01-30T04:57:37;2.80;99.90
26745;DHT22;14342;50.960;13.880;2024-01-30T04:58:38;2.80;99.90
26745;DHT22;14342;50.960;13.880;2024-01-30T04:59:39;2.80;99.90
26745;DHT22;14342;50.960;13.880;2024-01-30T05:00:40;2.80;99.90
26745;DHT22;14342;50.960;13.880;2024-01-30T05:01:41;2.80;99.90
26745;DHT22;14342;50.960;13.880;2024-01-30T05:02:42;2.90;99.90
26745;DHT22;14342;50.960;13.880;2024-01-30T05:03:43;3.10;99.90
26745;DHT22;14342;50.960;13.880;2024-01-30T05:04:44;3.00;99.90
26745;DHT22;14342;50.960;13.880;2024-01-30T05:05:45;3.00;99.90
26745;DHT22;14342;50.960;13.880;2024-01-30T05:06:46;3.20;99.90
26745;DHT22;14342;50.960;13.880;2024-01-30T05:07:48;3.00;99.90
26745;DHT22;14342;50.960;13.880;2024-01-30T05:08:48;3.00;99.90
26745;DHT22;14342;50.960;13.880;2024-01-30T05:09:51;3.00;99.90
26745;DHT22;14342;50.960;13.880;2024-01-30T05:10:52;3.00;99.90
26745;DHT22;14342;50.960;13.880;2024-01-30T05:11:53;3.00;99.90
26745;DHT22;14342;50.960;13.880;2024-01-30T05:12:54;2.90;99.90
26745;DHT22;14342;50.960;13.880;2024-01-30T05:13:55;2.90;99.90
26745;DHT22;14342;50.960;13.880;2024-01-30T05:14:56;3.00;99.90
26745;DHT22;14342;50.960;13.880;2024-01-30T05:15:57;3.00;99.90
26745;DHT22;14342;50.960;13.880;2024-01-30T05:16:58;3.00;99.90
26745;DHT22;14342;50.960;13.880;2024-01-30T05:17:59;3.00;99.90
26745;DHT22;14342;50.960;13.880;2024-01-30T05:19:00;3.00;99.90
26745;DHT22;14342;50.960;13.880;2024-01-30T05:20:02;2.90;99.90
26745;DHT22;14342;50.960;13.880;2024-01-30T05:21:03;2.90;99.90
26745;DHT22;14342;50.960;13.880;2024-01-30T05:22:04;2.90;99.90
26745;DHT22;14342;50.960;13.880;2024-01-30T05:23:05;2.80;99.90
26745;DHT22;14342;50.960;13.880;2024-01-30T05:24:06;2.90;99.90
26745;DHT22;14342;50.960;13.880;2024-01-30T05:25:09;2.70;99.90
26745;DHT22;14342;50.960;13.880;2024-01-30T05:26:09;2.70;99.90
26745;DHT22;14342;50.960;13.880;2024-01-30T05:27:11;2.70;99.90
26745;DHT22;14342;50.960;13.880;2024-01-30T05:28:13;2.70;99.90
26745;DHT22;14342;50.960;13.880;2024-01-30T05:29:15;2.80;99.90
26745;DHT22;14342;50.960;13.880;2024-01-30T05:30:16;2.80;99.90
26745;DHT22;14342;50.960;13.880;2024-01-30T05:31:16;2.80;99.90
26745;DHT22;14342;50.960;13.880;2024-01-30T05:32:18;3.10;99.90
26745;DHT22;14342;50.960;13.880;2024-01-30T05:33:18;3.20;99.90
26745;DHT22;14342;50.960;13.880;2024-01-30T05:34:20;2.90;99.90
26745;DHT22;14342;50.960;13.880;2024-01-30T05:35:20;2.80;99.90
26745;DHT22;14342;50.960;13.880;2024-01-30T05:36:22;2.80;99.90
26745;DHT22;14342;50.960;13.880;2024-01-30T05:37:22;2.80;99.90
26745;DHT22;14342;50.960;13.880;2024-01-30T05:38:24;2.80;99.90
26745;DHT22;14342;50.960;13.880;2024-01-30T05:39:25;2.80;99.90
26745;DHT22;14342;50.960;13.880;2024-01-30T05:40:28;2.80;99.90
26745;DHT22;14342;50.960;13.880;2024-01-30T05:41:28;2.80;99.90
26745;DHT22;14342;50.960;13.880;2024-01-30T05:42:30;2.80;99.90
26745;DHT22;14342;50.960;13.880;2024-01-30T05:43:30;2.80;99.90
26745;DHT22;14342;50.960;13.880;2024-01-30T05:44:31;2.90;99.90
26745;DHT22;14342;50.960;13.880;2024-01-30T05:45:33;2.90;99.90
26745;DHT22;14342;50.960;13.880;2024-01-30T05:46:35;2.90;99.90
26745;DHT22;14342;50.960;13.880;2024-01-30T05:47:37;3.00;99.90
26745;DHT22;14342;50.960;13.880;2024-01-30T05:48:37;3.00;99.90
26745;DHT22;14342;50.960;13.880;2024-01-30T05:49:39;3.00;99.90
26745;DHT22;14342;50.960;13.880;2024-01-30T05:50:39;3.00;99.90
26745;DHT22;14342;50.960;13.880;2024-01-30T05:51:41;2.90;99.90
26745;DHT22;14342;50.960;13.880;2024-01-30T05:52:41;2.80;99.90
26745;DHT22;14342;50.960;13.880;2024-01-30T05:53:43;2.80;99.90
26745;DHT22;14342;50.960;13.880;2024-01-30T05:54:44;2.90;99.90
26745;DHT22;14342;50.960;13.880;2024-01-30T05:55:47;2.90;99.90
26745;DHT22;14342;50.960;13.880;2024-01-30T05:56:47;2.80;99.90
26745;DHT22;14342;50.960;13.880;2024-01-30T05:57:49;2.90;99.90
26745;DHT22;14342;50.960;13.880;2024-01-30T05:58:49;2.90;99.90
26745;DHT22;14342;50.960;13.880;2024-01-30T05:59:51;3.20;99.90
26745;DHT22;14342;50.960;13.880;2024-01-30T06:00:52;3.10;99.90
26745;DHT22;14342;50.960;13.880;2024-01-30T06:01:53;2.90;99.90
26745;DHT22;14342;50.960;13.880;2024-01-30T06:02:54;2.90;99.90
26745;DHT22;14342;50.960;13.880;2024-01-30T06:03:55;3.10;99.90
26745;DHT22;14342;50.960;13.880;2024-01-30T06:04:55;2.90;99.90
26745;DHT22;14342;50.960;13.880;2024-01-30T06:05:57;2.90;99.90
26745;DHT22;14342;50.960;13.880;2024-01-30T06:06:58;2.80;99.90
26745;DHT22;14342;50.960;13.880;2024-01-30T06:08:02;2.80;99.90
26745;DHT22;14342;50.960;13.880;2024-01-30T06:09:02;2.80;99.90
26745;DHT22;14342;50.960;13.880;2024-01-30T06:10:03;2.80;99.90
26745;DHT22;14342;50.960;13.880;2024-01-30T06:11:09;2.90;99.90
26745;DHT22;14342;50.960;13.880;2024-01-30T06:12:10;3.00;99.90
26745;DHT22;14342;50.960;13.880;2024-01-30T06:13:12;2.90;99.90
26745;DHT22;14342;50.960;13.880;2024-01-30T06:14:13;2.90;99.90
26745;DHT22;14342;50.960;13.880;2024-01-30T06:15:14;2.80;99.90
26745;DHT22;14342;50.960;13.880;2024-01-30T06:16:15;3.00;99.90
26745;DHT22;14342;50.960;13.880;2024-01-30T06:17:16;2.80;99.90
26745;DHT22;14342;50.960;13.880;2024-01-30T06:18:17;3.00;99.90
26745;DHT22;14342;50.960;13.880;2024-01-30T06:19:19;2.90;99.90
26745;DHT22;14342;50.960;13.880;2024-01-30T06:20:19;2.90;99.90
26745;DHT22;14342;50.960;13.880;2024-01-30T06:21:21;3.20;99.90
26745;DHT22;14342;50.960;13.880;2024-01-30T06:22:21;3.00;99.90
26745;DHT22;14342;50.960;13.880;2024-01-30T06:23:23;3.30;99.90
26745;DHT22;14342;50.960;13.880;2024-01-30T06:24:23;3.00;99.90
26745;DHT22;14342;50.960;13.880;2024-01-30T06:25:25;3.00;99.90
26745;DHT22;14342;50.960;13.880;2024-01-30T06:26:27;3.00;99.90